Time;durP1;ratioP1;P1;durP2;ratioP2;P2;SDS_P1;SDS_P2;PMS_P1;PMS_P2;Temp;Humidity;BMP_temperature;BMP_pressure;BME280_temperature;BME280_humidity;BME280_pressure;Samples;Min_cycle;Max_cycle;Signal;HPM_P1;HPM_P2
2023/01/29 00:00:05;;;;;;;335.27;89.85;;;;;;;4.17;81.60;99720.75;339673;29;1409;-78
2023/01/29 00:00:16;;;;;;;336.25;91.65;;;;;;;4.15;81.79;99712.16;338436;29;4668;-78
2023/01/29 00:00:26;;;;;;;335.48;90.63;;;;;;;4.18;81.40;99717.28;340564;29;1293;-78
2023/01/29 00:00:37;;;;;;;335.38;89.63;;;;;;;4.14;81.48;99715.63;339302;29;1278;-78
2023/01/29 00:00:47;;;;;;;338.07;90.10;;;;;;;4.15;81.61;99722.53;337926;29;4092;-78
2023/01/29 00:01:05;;;;;;;339.63;90.83;;;;;;;4.16;81.81;99719.06;340736;28;1043;-78
2023/01/29 00:01:15;;;;;;;336.80;88.03;;;;;;;4.15;81.68;99717.34;340489;29;1375;-78
2023/01/29 00:01:26;;;;;;;336.60;89.07;;;;;;;4.17;81.54;99723.34;338491;29;3554;-78
2023/01/29 00:01:36;;;;;;;336.63;90.80;;;;;;;4.17;81.77;99715.59;338387;29;2678;-78
2023/01/29 00:01:46;;;;;;;338.50;92.83;;;;;;;4.16;81.65;99719.06;337274;29;1334;-78
2023/01/29 00:01:57;;;;;;;337.15;90.68;;;;;;;4.18;81.39;99721.63;336712;29;1362;-78
2023/01/29 00:02:07;;;;;;;337.00;91.07;;;;;;;4.16;81.40;99713.00;333682;29;3637;-78
2023/01/29 00:02:18;;;;;;;335.77;89.55;;;;;;;4.18;81.59;99713.84;334677;29;3019;-78
2023/01/29 00:02:28;;;;;;;336.30;89.83;;;;;;;4.20;81.60;99718.13;332686;29;1428;-78
2023/01/29 00:02:39;;;;;;;336.05;87.97;;;;;;;4.22;81.53;99718.97;332408;29;1352;-78
2023/01/29 00:02:49;;;;;;;340.80;90.57;;;;;;;4.21;81.54;99719.00;324955;29;4623;-79
2023/01/29 00:03:00;;;;;;;340.63;92.43;;;;;;;4.20;81.54;99720.72;325593;30;1914;-79
2023/01/29 00:03:10;;;;;;;341.43;93.23;;;;;;;4.21;81.29;99716.41;329134;30;1214;-79
2023/01/29 00:03:20;;;;;;;337.92;91.32;;;;;;;4.20;81.29;99717.28;328553;29;3494;-78
2023/01/29 00:03:32;;;;;;;339.23;90.63;;;;;;;4.21;81.47;99717.25;328075;29;2699;-78
2023/01/29 00:03:42;;;;;;;338.30;90.32;;;;;;;4.22;81.53;99718.97;329060;29;1439;-78
2023/01/29 00:03:52;;;;;;;338.40;89.53;;;;;;;4.20;81.19;99710.38;329260;29;1380;-79
2023/01/29 00:04:03;;;;;;;338.83;90.33;;;;;;;4.23;81.41;99717.25;325608;30;3609;-79
2023/01/29 00:04:13;;;;;;;337.10;90.82;;;;;;;4.23;81.69;99715.50;321444;30;3189;-79
2023/01/29 00:04:24;;;;;;;338.33;94.10;;;;;;;4.24;81.67;99714.63;321679;30;3027;-79
2023/01/29 00:04:34;;;;;;;339.60;95.30;;;;;;;4.23;82.12;99706.88;319059;30;2115;-78
2023/01/29 00:04:45;;;;;;;340.47;97.17;;;;;;;4.24;81.85;99717.22;317378;30;3646;-78
2023/01/29 00:04:56;;;;;;;340.07;95.70;;;;;;;4.22;81.10;99713.78;318243;30;2773;-78
2023/01/29 00:05:06;;;;;;;338.17;92.30;;;;;;;4.19;81.43;99713.84;320714;30;2097;-78
2023/01/29 00:05:17;;;;;;;337.33;89.57;;;;;;;4.20;81.59;99715.53;317733;30;1574;-78
2023/01/29 00:05:27;;;;;;;338.58;91.35;;;;;;;4.18;81.63;99719.88;313358;31;3645;-79
2023/01/29 00:05:38;;;;;;;338.60;92.73;;;;;;;4.18;81.64;99719.88;317211;31;1341;-79
2023/01/29 00:05:48;;;;;;;336.95;92.47;;;;;;;4.17;81.62;99715.59;318294;31;1475;-79
2023/01/29 00:05:59;;;;;;;335.83;91.80;;;;;;;4.19;81.53;99715.56;314627;31;3335;-77
2023/01/29 00:06:10;;;;;;;335.98;91.40;;;;;;;4.20;81.68;99717.28;311692;31;3056;-78
2023/01/29 00:06:24;;;;;;;335.92;92.40;;;;;;;4.22;81.81;99721.56;315858;31;1910;-79
2023/01/29 00:06:35;;;;;;;335.67;91.22;;;;;;;4.23;81.51;99718.09;320045;30;2456;-78
2023/01/29 00:06:45;;;;;;;336.65;90.90;;;;;;;4.22;81.58;99718.13;316792;30;3809;-80
2023/01/29 00:06:55;;;;;;;337.87;91.77;;;;;;;4.22;81.47;99718.97;316120;31;1198;-79
2023/01/29 00:07:06;;;;;;;337.50;90.65;;;;;;;4.20;81.56;99712.97;312271;31;2137;-79
2023/01/29 00:07:16;;;;;;;337.73;88.00;;;;;;;4.23;81.56;99715.50;314495;31;3240;-79
2023/01/29 00:07:34;;;;;;;336.75;87.97;;;;;;;4.22;81.60;99713.78;315813;31;1896;-78
2023/01/29 00:07:44;;;;;;;337.83;91.05;;;;;;;4.23;81.60;99720.69;312267;31;2254;-78
2023/01/29 00:07:55;;;;;;;337.50;91.43;;;;;;;4.23;81.73;99715.50;314991;31;1227;-78
2023/01/29 00:08:05;;;;;;;340.80;92.30;;;;;;;4.24;81.69;99714.63;314495;31;3105;-78
2023/01/29 00:08:16;;;;;;;341.77;91.78;;;;;;;4.25;81.62;99707.72;313793;31;3401;-79
2023/01/29 00:08:26;;;;;;;345.13;95.33;;;;;;;4.19;81.29;99719.00;312074;31;1715;-79
2023/01/29 00:08:36;;;;;;;343.63;95.85;;;;;;;4.19;81.86;99713.84;313133;31;2741;-79
2023/01/29 00:08:47;;;;;;;345.73;97.80;;;;;;;4.18;81.68;99717.28;310104;31;2877;-79
2023/01/29 00:08:57;;;;;;;344.27;95.13;;;;;;;4.19;81.65;99713.84;303990;32;3462;-79
2023/01/29 00:09:08;;;;;;;349.40;99.37;;;;;;;4.19;81.50;99716.41;302567;32;4003;-79
2023/01/29 00:09:20;;;;;;;344.38;93.88;;;;;;;4.18;81.59;99722.47;305461;31;2663;-79
2023/01/29 00:09:35;;;;;;;343.73;90.75;;;;;;;4.18;81.68;99722.47;305195;31;2864;-79
2023/01/29 00:09:46;;;;;;;343.15;90.88;;;;;;;4.20;81.64;99725.06;303381;32;2271;-79
2023/01/29 00:09:56;;;;;;;342.30;93.70;;;;;;;4.21;81.83;99722.44;305031;32;2605;-79
2023/01/29 00:10:07;;;;;;;339.75;93.75;;;;;;;4.23;81.43;99717.25;305712;32;2365;-78
2023/01/29 00:10:18;;;;;;;342.48;95.45;;;;;;;4.23;81.70;99720.69;302823;32;2977;-79
2023/01/29 00:10:28;;;;;;;338.17;93.13;;;;;;;4.20;81.42;99715.53;299309;32;3674;-79
2023/01/29 00:10:38;;;;;;;340.85;94.30;;;;;;;4.24;81.57;99718.94;300090;32;841;-78
2023/01/29 00:10:51;;;;;;;339.47;94.50;;;;;;;4.23;81.90;99725.88;293817;33;4227;-79
2023/01/29 00:11:06;;;;;;;338.30;95.63;;;;;;;4.24;81.51;99717.22;291756;33;3811;-79
2023/01/29 00:11:19;;;;;;;342.33;95.80;;;;;;;4.24;81.54;99717.22;293547;33;4660;-78
2023/01/29 00:11:30;;;;;;;343.23;93.22;;;;;;;4.24;81.53;99719.81;291062;33;4472;-79
2023/01/29 00:11:41;;;;;;;343.25;92.25;;;;;;;4.26;81.43;99717.19;289467;34;3805;-79
2023/01/29 00:11:51;;;;;;;339.95;91.90;;;;;;;4.27;81.33;99722.34;289580;33;3789;-80
2023/01/29 00:12:02;;;;;;;339.27;91.90;;;;;;;4.29;81.73;99725.78;289548;33;3560;-79
2023/01/29 00:12:12;;;;;;;338.33;93.07;;;;;;;4.30;81.67;99717.13;287888;33;3194;-79
2023/01/29 00:12:25;;;;;;;345.00;94.50;;;;;;;4.30;81.51;99727.50;281072;35;3770;-77
2023/01/29 00:12:35;;;;;;;348.83;97.50;;;;;;;4.30;81.54;99727.50;280094;34;4364;-79
2023/01/29 00:12:46;;;;;;;349.25;100.22;;;;;;;4.29;81.33;99714.56;277533;35;5521;-79
2023/01/29 00:12:56;;;;;;;347.17;101.50;;;;;;;4.27;81.41;99711.13;276495;35;1228;-79
2023/01/29 00:13:06;;;;;;;343.35;98.82;;;;;;;4.27;81.68;99722.34;272831;35;6944;-79
2023/01/29 00:13:17;;;;;;;341.57;96.03;;;;;;;4.27;81.18;99724.94;272755;35;5357;-79
2023/01/29 00:13:27;;;;;;;341.25;95.30;;;;;;;4.25;81.37;99721.53;271737;35;5770;-79
2023/01/29 00:13:38;;;;;;;344.97;96.97;;;;;;;4.26;81.57;99723.25;273010;36;1298;-79
2023/01/29 00:13:48;;;;;;;343.05;96.07;;;;;;;4.27;81.33;99722.34;267181;36;6455;-79
2023/01/29 00:15:41;;;;;;;329.06;88.54;;;;;;;4.26;82.06;99720.66;2493854;27;20281;-79
2023/01/29 00:15:55;;;;;;;333.42;91.78;;;;;;;4.27;81.53;99727.53;350064;28;1284;-79
2023/01/29 00:16:06;;;;;;;336.35;93.45;;;;;;;4.28;81.20;99726.66;346018;28;1510;-79
2023/01/29 00:16:16;;;;;;;337.33;93.70;;;;;;;4.28;81.29;99723.22;348865;28;3340;-79
2023/01/29 00:16:28;;;;;;;337.80;92.00;;;;;;;4.28;81.57;99731.84;348243;28;3586;-80
2023/01/29 00:16:38;;;;;;;336.08;90.78;;;;;;;4.25;81.55;99718.06;349351;28;860;-80
2023/01/29 00:16:48;;;;;;;339.03;91.27;;;;;;;4.26;81.35;99720.66;347476;28;1319;-79
2023/01/29 00:16:59;;;;;;;341.05;93.53;;;;;;;4.28;81.33;99723.22;347577;28;1449;-79
2023/01/29 00:17:09;;;;;;;343.47;93.07;;;;;;;4.28;81.60;99723.22;346124;28;1287;-79
2023/01/29 00:17:20;;;;;;;338.10;91.07;;;;;;;4.25;81.72;99724.13;349573;28;1201;-79
2023/01/29 00:17:30;;;;;;;337.03;90.50;;;;;;;4.27;81.99;99726.69;350138;28;1204;-80
2023/01/29 00:17:41;;;;;;;333.08;90.50;;;;;;;4.29;81.06;99724.94;350040;28;919;-79
2023/01/29 00:17:51;;;;;;;334.37;92.27;;;;;;;4.28;81.25;99726.66;346006;28;1198;-79
2023/01/29 00:18:01;;;;;;;333.55;90.80;;;;;;;4.27;81.51;99722.34;348605;28;1287;-83
2023/01/29 00:18:12;;;;;;;335.17;90.50;;;;;;;4.29;81.18;99724.94;346756;28;1243;-78
2023/01/29 00:18:22;;;;;;;335.85;89.90;;;;;;;4.29;81.70;99728.38;348654;28;1232;-80
2023/01/29 00:18:33;;;;;;;343.00;92.90;;;;;;;4.27;81.45;99714.59;348694;28;1262;-79
2023/01/29 00:18:45;;;;;;;345.02;94.03;;;;;;;4.28;81.08;99723.22;347983;28;1446;-78
2023/01/29 00:18:55;;;;;;;339.83;92.63;;;;;;;4.31;81.17;99728.34;346066;28;940;-78
2023/01/29 00:19:06;;;;;;;333.77;90.25;;;;;;;4.25;81.49;99724.13;347208;28;888;-78
2023/01/29 00:19:16;;;;;;;332.97;89.47;;;;;;;4.20;81.16;99720.72;347609;28;1188;-79
2023/01/29 00:19:27;;;;;;;334.67;90.63;;;;;;;4.22;81.29;99729.34;347407;28;995;-79
2023/01/29 00:19:38;;;;;;;338.48;91.78;;;;;;;4.23;81.05;99728.47;345742;28;1366;-77
2023/01/29 00:19:48;;;;;;;340.87;92.80;;;;;;;4.23;81.29;99725.88;345639;28;1329;-78
2023/01/29 00:19:59;;;;;;;341.25;92.18;;;;;;;4.23;81.20;99725.88;344272;28;1210;-78
2023/01/29 00:20:10;;;;;;;340.33;92.07;;;;;;;4.24;81.54;99731.91;343144;28;1339;-78
2023/01/29 00:20:20;;;;;;;338.02;91.63;;;;;;;4.23;81.60;99730.19;347209;28;1557;-78
2023/01/29 00:20:30;;;;;;;339.63;91.63;;;;;;;4.23;81.04;99725.88;347266;28;1271;-77
2023/01/29 00:20:42;;;;;;;337.27;92.10;;;;;;;4.24;81.17;99734.50;347344;28;773;-77
2023/01/29 00:20:53;;;;;;;336.02;91.32;;;;;;;4.24;80.89;99727.56;345875;28;1390;-80
2023/01/29 00:21:08;;;;;;;335.67;90.78;;;;;;;4.25;81.36;99724.13;343074;28;937;-78
2023/01/29 00:21:20;;;;;;;334.35;90.43;;;;;;;4.27;81.20;99727.53;346987;28;1295;-78
2023/01/29 00:21:31;;;;;;;333.17;90.20;;;;;;;4.27;81.14;99721.50;345909;28;1250;-77
2023/01/29 00:21:42;;;;;;;333.73;89.93;;;;;;;4.26;81.17;99727.56;343246;28;862;-77
2023/01/29 00:21:52;;;;;;;333.63;88.93;;;;;;;4.23;81.34;99731.03;344626;28;1275;-79
2023/01/29 00:22:03;;;;;;;333.40;89.43;;;;;;;4.24;81.02;99722.41;346180;28;1350;-78
2023/01/29 00:22:13;;;;;;;333.83;90.47;;;;;;;4.23;81.50;99728.47;344423;28;1325;-79
2023/01/29 00:22:24;;;;;;;335.23;90.43;;;;;;;4.20;81.13;99725.91;341819;28;1258;-79
2023/01/29 00:22:35;;;;;;;334.13;89.63;;;;;;;4.22;81.37;99729.34;342003;28;969;-79
2023/01/29 00:22:45;;;;;;;332.17;87.63;;;;;;;4.23;81.35;99725.88;343511;28;872;-79
2023/01/29 00:22:56;;;;;;;333.00;88.60;;;;;;;4.22;81.53;99726.75;344642;28;1343;-79
2023/01/29 00:23:07;;;;;;;335.10;89.40;;;;;;;4.23;81.46;99732.78;340849;28;1236;-79
2023/01/29 00:23:17;;;;;;;336.83;91.20;;;;;;;4.25;81.18;99729.28;341201;28;1468;-77
2023/01/29 00:23:28;;;;;;;336.70;90.53;;;;;;;4.25;81.24;99734.47;344534;28;1303;-78
2023/01/29 00:23:38;;;;;;;336.23;89.25;;;;;;;4.26;81.20;99724.97;343114;28;1244;-78
2023/01/29 00:23:49;;;;;;;336.43;90.20;;;;;;;4.27;81.49;99731.88;343816;28;1316;-80
2023/01/29 00:23:59;;;;;;;336.60;91.28;;;;;;;4.28;81.24;99729.25;344356;28;1370;-78
2023/01/29 00:24:11;;;;;;;336.73;92.97;;;;;;;4.28;81.27;99736.16;341842;28;793;-79
2023/01/29 00:24:22;;;;;;;333.73;90.78;;;;;;;4.28;81.16;99731.84;342962;28;1331;-78
2023/01/29 00:24:33;;;;;;;332.87;90.17;;;;;;;4.27;81.23;99722.34;339739;28;1907;-78
2023/01/29 00:24:43;;;;;;;333.30;91.00;;;;;;;4.25;81.46;99733.63;337908;29;1322;-79
2023/01/29 00:24:54;;;;;;;333.52;91.47;;;;;;;4.24;81.15;99729.31;338026;29;4168;-78
2023/01/29 00:25:05;;;;;;;338.33;91.93;;;;;;;4.24;81.25;99732.75;339479;28;2892;-80
2023/01/29 00:25:15;;;;;;;342.65;93.75;;;;;;;4.25;81.25;99733.63;338113;29;1868;-80
2023/01/29 00:25:26;;;;;;;342.67;93.47;;;;;;;4.25;81.55;99734.47;339179;29;2882;-78
2023/01/29 00:25:36;;;;;;;336.70;92.95;;;;;;;4.25;81.61;99734.47;339094;28;1547;-79
2023/01/29 00:25:47;;;;;;;332.70;91.80;;;;;;;4.25;81.45;99733.63;339259;28;1662;-80
2023/01/29 00:26:00;;;;;;;333.50;92.97;;;;;;;4.27;81.28;99743.09;334329;29;3391;-79
2023/01/29 00:26:10;;;;;;;336.60;96.13;;;;;;;4.25;81.21;99724.13;332375;29;2824;-79
2023/01/29 00:26:21;;;;;;;338.23;96.67;;;;;;;4.19;81.46;99729.38;333961;29;1866;-78
2023/01/29 00:26:31;;;;;;;339.33;97.07;;;;;;;4.17;81.37;99733.72;331731;29;2035;-78
2023/01/29 00:26:42;;;;;;;337.97;94.47;;;;;;;4.16;81.19;99729.41;329645;29;3043;-79
2023/01/29 00:26:54;;;;;;;335.05;91.75;;;;;;;4.16;81.47;99732.00;328281;30;1716;-80
2023/01/29 00:27:05;;;;;;;337.27;91.38;;;;;;;4.18;81.36;99731.97;325577;30;3733;-80
2023/01/29 00:27:15;;;;;;;338.48;92.57;;;;;;;4.17;81.46;99738.03;328068;29;1772;-79
2023/01/29 00:27:25;;;;;;;343.80;95.00;;;;;;;4.16;81.50;99734.59;329143;29;1724;-79
2023/01/29 00:27:36;;;;;;;341.73;95.53;;;;;;;4.18;81.57;99727.66;327755;29;2935;-78
2023/01/29 00:27:47;;;;;;;343.73;94.45;;;;;;;4.18;81.67;99734.56;327067;30;2184;-79
2023/01/29 00:27:57;;;;;;;340.63;93.87;;;;;;;4.17;81.61;99731.13;321062;30;2971;-79
2023/01/29 00:28:08;;;;;;;341.58;93.60;;;;;;;4.20;81.51;99740.59;322120;30;2744;-79
2023/01/29 00:28:18;;;;;;;341.92;96.60;;;;;;;4.21;81.76;99737.13;325731;30;2613;-77
2023/01/29 00:28:29;;;;;;;345.30;96.43;;;;;;;4.23;81.66;99741.41;324877;30;2358;-78
2023/01/29 00:28:40;;;;;;;345.05;95.63;;;;;;;4.22;81.58;99739.69;322707;30;2968;-80
2023/01/29 00:28:51;;;;;;;340.85;92.68;;;;;;;4.23;81.95;99736.22;326351;30;3509;-80
2023/01/29 00:29:01;;;;;;;337.30;92.65;;;;;;;4.23;81.55;99738.81;322411;30;3922;-80
2023/01/29 00:29:12;;;;;;;335.50;92.33;;;;;;;4.23;81.66;99738.81;323923;30;2848;-80
2023/01/29 00:29:23;;;;;;;333.60;91.38;;;;;;;4.25;81.84;99734.47;324821;30;1707;-79
2023/01/29 00:29:34;;;;;;;333.77;90.60;;;;;;;4.26;81.48;99738.78;324841;30;2831;-79
2023/01/29 00:30:07;;;;;;;335.50;91.50;;;;;;;4.27;81.51;99732.72;323110;30;2488;-79
2023/01/29 00:30:18;;;;;;;334.77;89.63;;;;;;;4.25;81.37;99738.81;322114;30;3148;-80
2023/01/29 00:30:28;;;;;;;334.85;88.90;;;;;;;4.25;81.28;99738.81;320778;30;2025;-80
2023/01/29 00:30:39;;;;;;;336.63;91.60;;;;;;;4.23;81.48;99736.22;315176;31;3124;-79
2023/01/29 00:30:49;;;;;;;339.17;93.40;;;;;;;4.22;81.36;99737.09;313513;31;3571;-78
2023/01/29 00:31:18;;;;;;;339.77;93.63;;;;;;;4.20;81.20;99738.84;311420;31;2871;-80
2023/01/29 00:31:29;;;;;;;334.90;91.63;;;;;;;4.20;81.87;99736.25;301504;32;2749;-78
2023/01/29 00:31:39;;;;;;;336.77;91.97;;;;;;;4.19;81.84;99733.69;296744;33;1416;-81
2023/01/29 00:31:51;;;;;;;334.77;91.30;;;;;;;4.19;81.81;99744.91;300631;32;2997;-83
2023/01/29 00:32:01;;;;;;;334.80;91.85;;;;;;;4.20;81.28;99748.34;299657;32;3727;-79
2023/01/29 00:32:11;;;;;;;336.07;93.50;;;;;;;4.18;81.75;99745.78;299130;33;2179;-78
2023/01/29 00:32:22;;;;;;;340.42;96.07;;;;;;;4.18;81.99;99738.03;299038;32;4253;-78
2023/01/29 00:32:32;;;;;;;339.57;93.27;;;;;;;4.19;81.87;99744.91;298096;32;4272;-78
2023/01/29 00:32:43;;;;;;;338.98;93.15;;;;;;;4.21;82.20;99742.31;298031;33;1488;-78
2023/01/29 00:32:53;;;;;;;339.43;94.87;;;;;;;4.19;81.67;99734.56;296603;32;5813;-79
2023/01/29 00:33:04;;;;;;;338.83;95.28;;;;;;;4.17;81.89;99741.47;297768;32;4799;-78
2023/01/29 00:33:14;;;;;;;340.80;96.83;;;;;;;4.15;82.02;99740.66;295040;33;4353;-79
2023/01/29 00:33:25;;;;;;;338.73;94.20;;;;;;;4.14;82.05;99738.94;293907;33;1833;-79
2023/01/29 00:33:35;;;;;;;338.75;95.10;;;;;;;4.14;82.08;99736.34;294371;33;2711;-78
2023/01/29 00:33:46;;;;;;;336.83;94.53;;;;;;;4.13;81.79;99734.63;293851;33;2874;-78
2023/01/29 00:33:57;;;;;;;338.90;94.13;;;;;;;4.13;81.97;99745.00;288180;34;4541;-78
2023/01/29 00:34:07;;;;;;;339.30;94.50;;;;;;;4.12;82.10;99745.88;288707;33;4914;-78
2023/01/29 00:34:18;;;;;;;342.13;95.43;;;;;;;4.10;82.07;99739.84;289060;33;5652;-78
2023/01/29 00:34:28;;;;;;;339.52;92.88;;;;;;;4.08;81.96;99740.75;288471;34;3031;-78
2023/01/29 00:34:38;;;;;;;340.93;93.77;;;;;;;4.10;82.13;99744.16;282719;34;6369;-79
2023/01/29 00:34:49;;;;;;;337.05;92.18;;;;;;;4.09;82.08;99745.91;279131;34;6741;-79
2023/01/29 00:35:01;;;;;;;338.37;95.63;;;;;;;4.12;82.07;99740.69;276716;35;7557;-79
2023/01/29 00:35:11;;;;;;;335.80;92.35;;;;;;;4.13;81.83;99739.81;279849;35;2916;-79
2023/01/29 00:35:22;;;;;;;337.23;91.95;;;;;;;4.14;82.02;99738.94;276204;35;6622;-79
2023/01/29 00:35:32;;;;;;;339.53;94.13;;;;;;;4.16;82.04;99739.78;274103;35;5545;-79
2023/01/29 00:35:43;;;;;;;341.73;97.45;;;;;;;4.16;81.93;99739.78;273591;36;1440;-78
2023/01/29 00:35:54;;;;;;;339.60;97.07;;;;;;;4.16;82.21;99738.91;273734;35;4660;-79
2023/01/29 00:36:05;;;;;;;336.90;95.22;;;;;;;4.14;81.83;99741.53;270368;36;5319;-79
2023/01/29 00:36:17;;;;;;;339.13;95.28;;;;;;;4.15;81.95;99743.25;267990;36;7047;-80
2023/01/29 00:36:27;;;;;;;341.73;94.60;;;;;;;4.16;82.09;99747.53;268521;36;2317;-79
2023/01/29 00:38:07;;;;;;;325.87;86.16;;;;;;;4.15;82.20;99743.25;2497538;27;20509;-80
2023/01/29 00:38:18;;;;;;;333.80;90.97;;;;;;;4.15;81.93;99743.25;352962;28;1478;-79
2023/01/29 00:38:28;;;;;;;336.60;92.15;;;;;;;4.15;81.96;99744.97;348586;28;2794;-79
2023/01/29 00:38:38;;;;;;;339.93;93.67;;;;;;;4.14;82.17;99746.69;350318;28;1493;-79
2023/01/29 00:38:57;;;;;;;337.90;89.78;;;;;;;4.15;82.09;99747.56;345616;28;3617;-79
2023/01/29 00:39:13;;;;;;;335.77;89.50;;;;;;;4.14;82.03;99745.84;346845;28;2738;-79
2023/01/29 00:39:24;;;;;;;339.05;91.45;;;;;;;4.16;81.84;99750.13;347051;28;2060;-79
2023/01/29 00:39:38;;;;;;;338.60;91.93;;;;;;;4.17;82.02;99751.84;348616;28;2762;-79
2023/01/29 00:39:49;;;;;;;335.85;91.05;;;;;;;4.18;82.28;99747.53;347146;28;3536;-79
2023/01/29 00:39:59;;;;;;;335.80;89.68;;;;;;;4.18;82.21;99748.38;347134;28;3258;-78
2023/01/29 00:40:10;;;;;;;334.97;88.70;;;;;;;4.19;81.87;99747.50;347054;28;2981;-79
2023/01/29 00:40:21;;;;;;;340.17;92.85;;;;;;;4.19;82.14;99744.06;346610;28;1831;-76
2023/01/29 00:44:56;;;;;;;344.08;92.70;;;;;;;4.18;82.10;99739.75;347515;28;2730;-79
2023/01/29 00:45:01;;;;;;;330.00;86.85;;;;;;;4.23;82.02;99746.59;337661;29;2697;-79
2023/01/29 00:45:11;;;;;;;331.52;87.72;;;;;;;4.22;82.26;99744.00;339421;29;1890;-79
2023/01/29 00:45:22;;;;;;;335.33;92.60;;;;;;;4.23;82.27;99745.72;341030;28;1800;-79
2023/01/29 00:45:33;;;;;;;338.17;93.53;;;;;;;4.22;82.52;99744.88;338627;29;2743;-78
2023/01/29 00:45:43;;;;;;;337.50;92.75;;;;;;;4.18;82.01;99748.38;341422;28;1624;-78
2023/01/29 00:45:53;;;;;;;337.53;92.77;;;;;;;4.17;82.55;99751.84;338779;28;3470;-78
2023/01/29 00:46:05;;;;;;;339.15;95.75;;;;;;;4.18;82.40;99745.78;333691;29;1614;-78
2023/01/29 00:46:15;;;;;;;341.15;97.03;;;;;;;4.15;82.49;99744.97;337748;29;1864;-79
2023/01/29 00:46:26;;;;;;;342.10;95.40;;;;;;;4.14;82.74;99736.34;340837;28;2927;-78
2023/01/29 00:46:37;;;;;;;343.73;94.00;;;;;;;4.17;82.38;99749.25;341276;28;1317;-78
2023/01/29 00:46:47;;;;;;;342.08;90.32;;;;;;;4.18;82.47;99745.78;342040;28;1591;-78
2023/01/29 00:46:58;;;;;;;339.88;89.78;;;;;;;4.21;82.45;99750.06;338797;29;1977;-78
2023/01/29 00:47:37;;;;;;;333.27;87.25;;;;;;;4.22;82.29;99750.06;338044;29;702;-78
2023/01/29 00:47:47;;;;;;;331.38;86.95;;;;;;;4.22;82.20;99746.59;339127;29;967;-77
2023/01/29 00:47:58;;;;;;;331.10;87.17;;;;;;;4.21;82.12;99744.91;337718;29;1530;-78
2023/01/29 00:48:08;;;;;;;332.77;90.10;;;;;;;4.19;82.13;99744.91;334247;29;1233;-78
2023/01/29 00:48:19;;;;;;;335.83;92.03;;;;;;;4.20;82.22;99744.03;333160;29;1857;-78
2023/01/29 00:48:29;;;;;;;336.85;92.90;;;;;;;4.19;82.63;99744.91;334050;29;1988;-78
2023/01/29 00:48:39;;;;;;;335.43;92.07;;;;;;;4.19;82.41;99747.50;331103;29;2223;-78
2023/01/29 00:48:50;;;;;;;336.85;93.13;;;;;;;4.21;82.39;99747.47;327763;30;1282;-77
2023/01/29 00:49:00;;;;;;;337.13;93.17;;;;;;;4.22;82.36;99744.88;329237;29;1971;-78
2023/01/29 00:49:11;;;;;;;336.60;94.05;;;;;;;4.21;82.26;99748.34;329102;29;1407;-78
2023/01/29 00:49:21;;;;;;;334.17;93.23;;;;;;;4.20;82.24;99751.81;327855;30;1229;-78
2023/01/29 00:49:31;;;;;;;332.42;91.03;;;;;;;4.20;82.33;99741.44;331005;29;1276;-78
2023/01/29 00:49:42;;;;;;;334.17;90.47;;;;;;;4.23;82.34;99748.31;331593;29;1437;-78
2023/01/29 00:49:52;;;;;;;335.23;90.90;;;;;;;4.22;82.20;99752.66;330286;29;1304;-78
2023/01/29 00:50:06;;;;;;;337.80;91.63;;;;;;;4.23;82.28;99751.78;330976;29;1919;-78
2023/01/29 00:50:17;;;;;;;336.13;92.00;;;;;;;4.24;82.50;99748.31;332431;29;2505;-78
2023/01/29 00:50:27;;;;;;;334.23;92.40;;;;;;;4.24;82.42;99748.31;329923;29;2127;-78
2023/01/29 00:50:38;;;;;;;337.87;96.40;;;;;;;4.24;82.58;99750.91;325438;30;812;-79
2023/01/29 00:50:48;;;;;;;337.92;95.40;;;;;;;4.23;82.29;99751.78;324115;30;2198;-78
2023/01/29 00:50:59;;;;;;;338.30;95.67;;;;;;;4.23;82.44;99744.00;324306;30;2224;-78
2023/01/29 00:51:09;;;;;;;338.42;93.63;;;;;;;4.22;82.24;99742.28;320429;30;3519;-78
2023/01/29 00:51:20;;;;;;;339.43;94.37;;;;;;;4.19;82.24;99744.91;317493;30;2660;-78
2023/01/29 00:51:30;;;;;;;344.63;97.13;;;;;;;4.19;81.98;99747.50;320406;30;2804;-78
2023/01/29 00:51:41;;;;;;;345.35;97.78;;;;;;;4.17;82.17;99746.66;317663;31;1914;-78
2023/01/29 00:52:23;;;;;;;332.94;88.52;;;;;;;4.19;82.19;99750.09;311152;31;2849;-78
2023/01/29 00:52:35;;;;;;;336.10;90.60;;;;;;;4.19;82.24;99750.09;311610;31;2283;-79
2023/01/29 00:52:47;;;;;;;334.45;90.15;;;;;;;4.20;81.94;99745.78;308873;31;2641;-79
2023/01/29 00:52:57;;;;;;;336.02;92.15;;;;;;;4.18;82.10;99748.38;306304;31;3343;-79
2023/01/29 00:53:08;;;;;;;336.27;92.30;;;;;;;4.19;82.31;99744.06;307646;32;898;-78
2023/01/29 00:53:19;;;;;;;334.98;92.25;;;;;;;4.18;81.84;99748.38;309933;31;3586;-78
2023/01/29 00:53:29;;;;;;;333.60;90.80;;;;;;;4.18;82.13;99745.78;310033;31;3628;-78
2023/01/29 00:53:40;;;;;;;338.93;95.97;;;;;;;4.20;82.28;99753.53;308289;32;1759;-79
2023/01/29 00:53:50;;;;;;;340.60;96.23;;;;;;;4.21;81.92;99750.06;305042;32;2078;-79
2023/01/29 00:54:00;;;;;;;340.90;98.00;;;;;;;4.20;81.79;99749.22;306365;32;3045;-79
2023/01/29 00:54:11;;;;;;;337.10;95.50;;;;;;;4.18;81.97;99743.19;302738;32;3570;-79
2023/01/29 00:54:21;;;;;;;339.50;94.33;;;;;;;4.19;82.21;99747.50;299194;32;2667;-78
2023/01/29 00:54:32;;;;;;;341.58;93.50;;;;;;;4.20;81.99;99749.22;298824;32;4010;-78
2023/01/29 00:54:42;;;;;;;345.03;94.30;;;;;;;4.20;81.84;99745.78;297025;32;4106;-79
2023/01/29 00:54:56;;;;;;;341.38;93.95;;;;;;;4.19;82.26;99744.06;297061;33;3101;-78
2023/01/29 00:55:07;;;;;;;337.02;91.28;;;;;;;4.19;82.02;99744.06;294171;33;1040;-78
2023/01/29 00:55:18;;;;;;;336.63;92.72;;;;;;;4.20;82.26;99746.63;293640;33;3936;-78
2023/01/29 00:55:28;;;;;;;336.88;93.65;;;;;;;4.20;82.09;99746.63;293115;33;5173;-78
2023/01/29 00:55:39;;;;;;;341.33;96.63;;;;;;;4.22;82.17;99746.59;290143;34;1217;-78
2023/01/29 00:55:49;;;;;;;341.73;96.07;;;;;;;4.24;82.10;99752.63;291273;33;5921;-78
2023/01/29 00:55:59;;;;;;;341.77;97.50;;;;;;;4.23;82.23;99741.41;288026;34;2321;-79
2023/01/29 00:56:11;;;;;;;335.42;93.38;;;;;;;4.23;82.10;99741.41;284748;34;3700;-78
2023/01/29 00:56:21;;;;;;;335.35;93.32;;;;;;;4.19;81.88;99746.66;283814;34;2783;-79
2023/01/29 00:56:33;;;;;;;336.90;91.85;;;;;;;4.18;82.10;99745.78;282465;34;5155;-79
2023/01/29 00:56:44;;;;;;;341.73;94.75;;;;;;;4.17;81.58;99745.81;280203;34;5393;-79
2023/01/29 00:56:54;;;;;;;341.97;95.10;;;;;;;4.16;81.93;99744.09;278336;34;6098;-78
2023/01/29 00:57:05;;;;;;;340.53;94.23;;;;;;;4.13;82.04;99739.81;278327;35;913;-78
2023/01/29 00:57:15;;;;;;;339.00;93.37;;;;;;;4.13;81.84;99745.00;274582;35;7260;-78
2023/01/29 00:57:26;;;;;;;340.70;93.63;;;;;;;4.14;82.02;99741.53;275408;35;6185;-78
2023/01/29 00:57:38;;;;;;;342.58;95.38;;;;;;;4.14;82.24;99746.69;274867;36;1343;-79
2023/01/29 00:57:48;;;;;;;341.55;96.00;;;;;;;4.14;82.00;99744.13;269649;36;7408;-78
2023/01/29 00:57:59;;;;;;;340.53;96.57;;;;;;;4.15;82.10;99748.41;268359;36;6842;-78
2023/01/29 00:58:09;;;;;;;338.77;97.20;;;;;;;4.14;81.92;99740.66;266195;36;3708;-78
2023/01/29 00:58:20;;;;;;;340.30;96.67;;;;;;;4.15;81.77;99747.56;262181;37;4431;-77
2023/01/29 00:58:34;;;;;;;343.67;99.03;;;;;;;4.16;81.99;99750.13;262842;37;7678;-77
2023/01/29 01:11:03;;;;;;;324.56;83.76;;;;;;;4.03;82.84;99743.38;2484478;27;20504;-78
2023/01/29 01:11:14;;;;;;;332.02;86.70;;;;;;;4.03;82.34;99745.13;349996;28;3490;-78
2023/01/29 01:11:24;;;;;;;332.98;86.88;;;;;;;4.05;82.19;99744.22;345777;28;2855;-78
2023/01/29 01:11:35;;;;;;;335.50;88.53;;;;;;;4.04;82.33;99741.66;345956;28;1902;-78
2023/01/29 01:11:45;;;;;;;339.58;91.50;;;;;;;4.01;82.77;99745.13;346513;28;1644;-79
2023/01/29 01:11:55;;;;;;;342.57;92.53;;;;;;;4.00;82.73;99735.66;347874;28;1195;-79
2023/01/29 01:12:06;;;;;;;341.27;91.80;;;;;;;4.00;82.58;99740.84;347238;28;1062;-79
2023/01/29 01:12:17;;;;;;;341.33;92.20;;;;;;;4.00;82.40;99735.66;344410;28;3142;-78
2023/01/29 01:12:27;;;;;;;342.92;93.82;;;;;;;4.05;82.43;99740.78;345182;28;2891;-78
2023/01/29 01:12:38;;;;;;;340.38;91.75;;;;;;;4.05;82.49;99741.63;344945;28;1354;-78